createdAt,value
2023-06-17T00:01:35.333Z,100301.22
2023-06-17T00:04:05.316Z,100297.31
2023-06-17T00:06:35.935Z,100299.63
2023-06-17T00:09:05.184Z,100302.59
2023-06-17T00:11:33.611Z,100295.09
2023-06-17T00:14:02.295Z,100302.78
2023-06-17T00:16:40.404Z,100300.03
2023-06-17T00:19:08.836Z,100293.13
2023-06-17T00:21:39.399Z,100288.72
2023-06-17T00:24:09.871Z,100289.56
2023-06-17T00:26:38.566Z,100292.63
2023-06-17T00:29:07.727Z,100283.31
2023-06-17T00:31:37.333Z,100293.69
2023-06-17T00:34:05.645Z,100292.16
2023-06-17T00:36:35.112Z,100276.09
2023-06-17T00:39:03.461Z,100283.13
2023-06-17T00:41:31.745Z,100282.66
2023-06-17T00:44:01.361Z,100280.41
2023-06-17T00:46:36.547Z,100282.53
2023-06-17T00:49:08.075Z,100285.66
2023-06-17T00:51:36.206Z,100281.78
2023-06-17T00:54:05.524Z,100286.03
2023-06-17T00:56:34.970Z,100287.53
2023-06-17T00:59:06.019Z,100282.06
2023-06-17T01:01:36.504Z,100284.28
2023-06-17T01:04:12.299Z,100290.84
2023-06-17T01:06:51.714Z,100283.63
2023-06-17T01:09:26.237Z,100282.38
2023-06-17T01:11:57.955Z,100274.09
2023-06-17T01:14:29.416Z,100288.03
2023-06-17T01:16:59.725Z,100280.88
2023-06-17T01:19:36.808Z,100275.59
2023-06-17T01:22:09.811Z,100267.06
2023-06-17T01:24:43.482Z,100274.44
2023-06-17T01:27:13.165Z,100261.69
2023-06-17T01:29:41.479Z,100270.63
2023-06-17T01:32:10.112Z,100266.28
2023-06-17T01:34:48.445Z,100260.66
2023-06-17T01:37:22.615Z,100276.94
2023-06-17T01:39:53.366Z,100268.28
2023-06-17T01:42:31.039Z,100272.84
2023-06-17T01:45:02.147Z,100262.00
2023-06-17T01:47:30.850Z,100262.03
2023-06-17T01:50:01.771Z,100266.19
2023-06-17T01:52:35.327Z,100268.69
2023-06-17T01:55:06.665Z,100263.63
2023-06-17T01:57:34.874Z,100275.59
2023-06-17T02:00:04.088Z,100270.66
2023-06-17T02:02:35.412Z,100266.59
2023-06-17T02:05:07.619Z,100276.81
2023-06-17T02:07:36.716Z,100274.06
2023-06-17T02:10:17.300Z,100259.91
2023-06-17T02:12:45.241Z,100271.06
2023-06-17T02:15:13.508Z,100262.41
2023-06-17T02:17:42.823Z,100273.28
2023-06-17T02:20:12.885Z,100264.81
2023-06-17T02:22:41.182Z,100269.88
2023-06-17T02:25:11.842Z,100274.03
2023-06-17T02:27:39.671Z,100269.56
2023-06-17T02:30:10.676Z,100266.72
2023-06-17T02:32:39.260Z,100269.03
2023-06-17T02:35:11.588Z,100266.16
2023-06-17T02:37:41.772Z,100270.81
2023-06-17T02:40:13.871Z,100260.00
2023-06-17T02:42:41.771Z,100262.91
2023-06-17T02:45:15.993Z,100266.31
2023-06-17T02:47:46.587Z,100263.00
2023-06-17T02:50:15.933Z,100267.50
2023-06-17T02:52:47.696Z,100249.75
2023-06-17T02:55:20.854Z,100257.47
2023-06-17T02:57:49.517Z,100264.50
2023-06-17T03:00:18.051Z,100256.97
2023-06-17T03:02:50.301Z,100259.53
2023-06-17T03:05:22.666Z,100258.47
2023-06-17T03:07:50.530Z,100260.97
2023-06-17T03:10:22.304Z,100272.69
2023-06-17T03:12:51.794Z,100262.09
2023-06-17T03:15:20.868Z,100267.91
2023-06-17T03:17:49.567Z,100272.69
2023-06-17T03:20:17.910Z,100275.75
2023-06-17T03:22:49.775Z,100274.94
2023-06-17T03:25:22.278Z,100276.41
2023-06-17T03:27:53.550Z,100273.03
2023-06-17T03:30:23.270Z,100268.06
2023-06-17T03:32:54.380Z,100274.75
2023-06-17T03:35:24.694Z,100280.16
2023-06-17T03:37:53.507Z,100274.22
2023-06-17T03:40:26.810Z,100272.31
2023-06-17T03:42:56.522Z,100280.56
2023-06-17T03:45:28.769Z,100272.97
2023-06-17T03:48:01.703Z,100273.94
2023-06-17T03:50:30.143Z,100272.72
2023-06-17T03:53:02.458Z,100277.81
2023-06-17T03:55:32.861Z,100269.88
2023-06-17T03:58:01.331Z,100263.44
2023-06-17T04:00:31.317Z,100265.06
2023-06-17T04:03:09.331Z,100263.69
2023-06-17T04:05:45.293Z,100263.19
2023-06-17T04:08:13.420Z,100262.50
2023-06-17T04:10:43.702Z,100265.81
2023-06-17T04:13:13.975Z,100252.31
2023-06-17T04:15:42.374Z,100255.31
2023-06-17T04:18:11.748Z,100251.41
2023-06-17T04:20:40.248Z,100258.94
2023-06-17T04:23:08.905Z,100255.47
2023-06-17T04:25:57.801Z,100256.63
2023-06-17T04:28:32.901Z,100254.03
2023-06-17T04:31:12.126Z,100263.84
2023-06-17T04:33:43.322Z,100248.94
2023-06-17T04:36:12.355Z,100259.94
2023-06-17T04:38:41.710Z,100249.13
2023-06-17T04:41:14.585Z,100256.50
2023-06-17T04:43:46.607Z,100261.22
2023-06-17T04:46:18.719Z,100270.25
2023-06-17T04:48:50.460Z,100265.28
2023-06-17T04:51:20.382Z,100248.78
2023-06-17T04:53:51.990Z,100260.03
2023-06-17T04:56:28.116Z,100250.47
2023-06-17T04:59:05.517Z,100261.19
2023-06-17T05:01:36.237Z,100249.63
2023-06-17T05:04:08.833Z,100245.19
2023-06-17T05:06:38.331Z,100267.13
2023-06-17T05:09:06.631Z,100263.19
2023-06-17T05:11:39.793Z,100267.34
2023-06-17T05:14:10.669Z,100265.47
2023-06-17T05:16:41.186Z,100268.38
2023-06-17T05:19:10.510Z,100261.69
2023-06-17T05:21:41.181Z,100265.56
2023-06-17T05:24:09.788Z,100269.72
2023-06-17T05:26:40.367Z,100263.22
2023-06-17T05:29:10.811Z,100270.09
2023-06-17T05:31:39.870Z,100269.91
2023-06-17T05:34:10.029Z,100255.53
2023-06-17T05:36:38.445Z,100259.69
2023-06-17T05:39:06.380Z,100271.59
2023-06-17T05:41:35.035Z,100282.16
2023-06-17T05:44:02.877Z,100266.41
2023-06-17T05:46:36.541Z,100273.63
2023-06-17T05:49:04.868Z,100263.16
2023-06-17T05:51:33.334Z,100182.84
2023-06-17T05:54:04.277Z,100275.03
2023-06-17T05:56:34.021Z,100277.00
2023-06-17T05:59:02.341Z,100283.31
2023-06-17T06:01:30.593Z,100277.00
2023-06-17T06:04:01.082Z,100277.03
2023-06-17T06:06:29.464Z,100275.66
2023-06-17T06:08:58.242Z,100269.31
2023-06-17T06:11:30.598Z,100286.09
2023-06-17T06:13:58.755Z,100269.56
2023-06-17T06:16:33.372Z,100269.28
2023-06-17T06:19:20.425Z,100273.38
2023-06-17T06:21:49.159Z,100262.22
2023-06-17T06:24:18.123Z,100280.75
2023-06-17T06:26:46.644Z,100284.97
2023-06-17T06:29:21.788Z,100286.63
2023-06-17T06:31:57.538Z,100294.22
2023-06-17T06:34:32.476Z,100285.97
2023-06-17T06:37:02.570Z,100282.22
2023-06-17T06:39:34.153Z,100281.25
2023-06-17T06:42:09.737Z,100288.81
2023-06-17T06:44:41.784Z,100287.75
2023-06-17T06:47:17.616Z,100293.88
2023-06-17T06:49:51.663Z,100290.44
2023-06-17T06:52:23.486Z,100291.22
2023-06-17T06:54:59.632Z,100292.38
2023-06-17T06:57:31.927Z,100287.31
2023-06-17T07:00:00.130Z,100289.22
2023-06-17T07:02:30.011Z,100289.47
2023-06-17T07:05:03.123Z,100284.09
2023-06-17T07:07:31.807Z,100281.25
2023-06-17T07:10:02.902Z,100291.56
2023-06-17T07:12:36.767Z,100289.97
2023-06-17T07:15:36.669Z,100287.09
2023-06-17T07:18:16.997Z,100279.44
2023-06-17T07:20:49.924Z,100285.06
2023-06-17T07:23:19.304Z,100292.50
2023-06-17T07:25:47.709Z,100294.00
2023-06-17T07:28:16.030Z,100293.84
2023-06-17T07:30:45.542Z,100293.44
2023-06-17T07:33:14.911Z,100298.38
2023-06-17T07:35:44.777Z,100299.50
2023-06-17T07:38:16.765Z,100291.09
2023-06-17T07:40:49.940Z,100281.31
2023-06-17T07:43:23.854Z,100289.00
2023-06-17T07:45:55.561Z,100294.47
2023-06-17T07:48:26.689Z,100281.44
2023-06-17T07:50:56.978Z,100283.84
2023-06-17T07:53:28.131Z,100286.34
2023-06-17T07:55:57.233Z,100283.28
2023-06-17T07:58:29.300Z,100282.47
2023-06-17T08:01:02.718Z,100277.53
2023-06-17T08:03:32.021Z,100271.13
2023-06-17T08:06:00.150Z,100269.84
2023-06-17T08:08:37.020Z,100273.25
2023-06-17T08:11:05.282Z,100266.50
2023-06-17T08:13:39.048Z,100264.03
2023-06-17T08:16:09.745Z,100268.63
2023-06-17T08:18:37.954Z,100260.69
2023-06-17T08:21:06.516Z,100257.13
2023-06-17T08:23:36.294Z,100258.88
2023-06-17T08:26:06.878Z,100250.16
2023-06-17T08:28:36.606Z,100250.09
2023-06-17T08:31:05.567Z,100254.41
2023-06-17T08:33:38.956Z,100243.22
2023-06-17T08:36:10.133Z,100239.69
2023-06-17T08:38:40.124Z,100234.41
2023-06-17T08:41:08.003Z,100240.09
2023-06-17T08:43:38.759Z,100237.56
2023-06-17T08:46:08.132Z,100241.16
2023-06-17T08:48:41.087Z,100230.44
2023-06-17T08:51:11.765Z,100230.06
2023-06-17T08:53:46.471Z,100234.84
2023-06-17T08:56:15.875Z,100230.22
2023-06-17T08:58:54.110Z,100222.41
2023-06-17T09:01:25.537Z,100226.97
2023-06-17T09:03:57.378Z,100218.31
2023-06-17T09:06:29.348Z,100221.25
2023-06-17T09:09:01.388Z,100223.69
2023-06-17T09:11:33.096Z,100220.78
2023-06-17T09:14:04.844Z,100223.91
2023-06-17T09:16:35.767Z,100213.78
2023-06-17T09:19:07.700Z,100215.38
2023-06-17T09:21:37.788Z,100212.72
2023-06-17T09:24:10.905Z,100203.75
2023-06-17T09:26:45.229Z,100211.56
2023-06-17T09:29:16.166Z,100206.06
2023-06-17T09:31:54.716Z,100204.94
2023-06-17T09:34:24.023Z,100191.78
2023-06-17T09:36:56.145Z,100196.56
2023-06-17T09:39:34.146Z,100200.41
2023-06-17T09:42:09.968Z,100183.44
2023-06-17T09:44:39.298Z,100189.00
2023-06-17T09:47:10.241Z,100187.34
2023-06-17T09:49:40.861Z,100182.44
2023-06-17T09:52:12.027Z,100192.72
2023-06-17T09:54:43.981Z,100167.56
2023-06-17T09:57:15.263Z,100170.28
2023-06-17T09:59:48.717Z,100176.19
2023-06-17T10:02:20.333Z,100172.44
2023-06-17T10:04:49.736Z,100168.59
2023-06-17T10:07:24.569Z,100171.22
2023-06-17T10:09:56.873Z,100176.72
2023-06-17T10:12:27.349Z,100163.41
2023-06-17T10:14:56.049Z,100167.25
2023-06-17T10:17:27.615Z,100161.00
2023-06-17T10:19:59.251Z,100153.41
2023-06-17T10:22:29.480Z,100162.41
2023-06-17T10:24:58.912Z,100153.59
2023-06-17T10:27:31.248Z,100157.38
2023-06-17T10:30:01.688Z,100146.72
2023-06-17T10:32:32.550Z,100147.09
2023-06-17T10:35:15.810Z,100137.09
2023-06-17T10:37:48.213Z,100146.31
2023-06-17T10:40:26.679Z,100140.78
2023-06-17T10:42:57.113Z,100158.06
2023-06-17T10:45:27.318Z,100145.66
2023-06-17T10:48:15.576Z,100133.19
2023-06-17T10:50:49.504Z,100146.75
2023-06-17T10:53:29.476Z,100148.72
2023-06-17T10:56:02.797Z,100139.53
2023-06-17T10:58:34.667Z,100144.19
2023-06-17T11:01:04.432Z,100149.56
2023-06-17T11:03:32.955Z,100141.13
2023-06-17T11:06:06.414Z,100142.47
2023-06-17T11:08:37.589Z,100136.56
2023-06-17T11:11:15.457Z,100138.00
2023-06-17T11:13:44.863Z,100143.03
2023-06-17T11:16:15.406Z,100139.63
2023-06-17T11:18:47.542Z,100141.16
2023-06-17T11:21:17.470Z,100139.41
2023-06-17T11:23:48.722Z,100132.06
2023-06-17T11:26:19.144Z,100129.16
2023-06-17T11:28:53.030Z,100121.22
2023-06-17T11:31:26.862Z,100134.50
2023-06-17T11:34:02.563Z,100129.81
2023-06-17T11:36:32.417Z,100126.94
2023-06-17T11:39:00.990Z,100127.41
2023-06-17T11:41:30.838Z,100123.03
2023-06-17T11:43:59.047Z,100112.00
2023-06-17T11:46:28.928Z,100107.47
2023-06-17T11:48:57.860Z,100112.28
2023-06-17T11:51:26.376Z,100099.06
2023-06-17T11:53:55.514Z,100102.25
2023-06-17T11:56:30.230Z,100099.75
2023-06-17T11:59:04.231Z,100105.63
2023-06-17T12:01:33.246Z,100102.88
2023-06-17T12:04:01.979Z,100099.88
2023-06-17T12:06:33.571Z,100094.06
2023-06-17T12:09:05.547Z,100100.22
2023-06-17T12:11:37.008Z,100089.16
2023-06-17T12:14:09.407Z,100090.22
2023-06-17T12:16:42.032Z,100095.84
2023-06-17T12:19:22.869Z,100078.66
2023-06-17T12:21:51.916Z,100087.66
2023-06-17T12:24:21.267Z,100079.19
2023-06-17T12:26:49.678Z,100078.66
2023-06-17T12:29:25.577Z,100077.91
2023-06-17T12:31:56.107Z,100080.75
2023-06-17T12:34:24.550Z,100070.47
2023-06-17T12:36:54.683Z,100073.97
2023-06-17T12:39:23.995Z,100072.53
2023-06-17T12:41:53.729Z,100068.84
2023-06-17T12:44:25.130Z,100062.66
2023-06-17T12:46:56.826Z,100062.75
2023-06-17T12:49:25.760Z,100055.19
2023-06-17T12:51:58.506Z,100060.34
2023-06-17T12:54:30.858Z,100049.47
2023-06-17T12:57:00.815Z,100039.59
2023-06-17T12:59:31.256Z,100056.72
2023-06-17T13:02:01.612Z,100033.78
2023-06-17T13:04:32.275Z,100045.13
2023-06-17T13:07:01.118Z,100044.38
2023-06-17T13:09:29.376Z,100041.31
2023-06-17T13:11:57.765Z,100048.09
2023-06-17T13:14:25.856Z,100037.22
2023-06-17T13:16:55.977Z,100038.09
2023-06-17T13:19:24.988Z,100040.34
2023-06-17T13:21:54.584Z,100039.97
2023-06-17T13:24:22.804Z,100045.31
2023-06-17T13:26:56.537Z,100045.94
2023-06-17T13:29:32.369Z,100042.53
2023-06-17T13:32:03.214Z,100037.94
2023-06-17T13:34:36.037Z,100026.28
2023-06-17T13:37:04.614Z,100029.63
2023-06-17T13:39:34.893Z,100022.47
2023-06-17T13:42:06.013Z,100019.00
2023-06-17T13:44:33.820Z,100019.22
2023-06-17T13:47:05.945Z,100023.34
2023-06-17T13:49:36.051Z,100014.69
2023-06-17T13:52:05.481Z,100016.03
2023-06-17T13:54:33.676Z,100019.44
2023-06-17T13:57:04.372Z,100023.94
2023-06-17T13:59:36.582Z,100021.06
2023-06-17T14:02:19.807Z,100007.28
2023-06-17T14:04:53.929Z,100007.56
2023-06-17T14:07:22.154Z,100020.63
2023-06-17T14:09:57.669Z,100014.16
2023-06-17T14:12:26.006Z,100008.28
2023-06-17T14:14:54.930Z,99996.47
2023-06-17T14:17:26.921Z,99986.25
2023-06-17T14:19:57.805Z,99986.13
2023-06-17T14:22:26.045Z,99997.50
2023-06-17T14:25:00.464Z,99990.38
2023-06-17T14:27:43.112Z,99987.88
2023-06-17T14:30:14.378Z,99992.34
2023-06-17T14:32:49.057Z,99989.44
2023-06-17T14:35:24.661Z,99986.66
2023-06-17T14:37:54.085Z,99984.09
2023-06-17T14:40:24.023Z,99979.19
2023-06-17T14:42:55.836Z,99985.75
2023-06-17T14:45:25.680Z,99980.78
2023-06-17T14:47:57.441Z,99971.50
2023-06-17T14:50:27.647Z,99968.50
2023-06-17T14:52:59.662Z,99972.09
2023-06-17T14:55:29.958Z,99962.38
2023-06-17T14:57:58.278Z,99965.38
2023-06-17T15:00:28.092Z,99962.63
2023-06-17T15:03:03.048Z,99969.88
2023-06-17T15:05:36.293Z,99973.53
2023-06-17T15:08:06.549Z,99975.16
2023-06-17T15:10:35.722Z,99969.44
2023-06-17T15:13:04.630Z,99963.94
2023-06-17T15:15:34.639Z,99960.16
2023-06-17T15:18:04.006Z,99958.88
2023-06-17T15:20:31.981Z,99961.63
2023-06-17T15:22:59.819Z,99949.19
2023-06-17T15:25:29.571Z,99953.28
2023-06-17T15:27:57.480Z,99952.47
2023-06-17T15:30:27.718Z,99933.00
2023-06-17T15:33:01.224Z,99951.16
2023-06-17T15:35:30.706Z,99945.00
2023-06-17T15:38:01.335Z,99957.13
2023-06-17T15:40:29.290Z,99946.81
2023-06-17T15:42:58.602Z,99955.47
2023-06-17T15:45:31.141Z,99943.56
2023-06-17T15:48:01.605Z,99965.78
2023-06-17T15:50:32.149Z,99944.81
2023-06-17T15:53:00.261Z,99949.03
2023-06-17T15:55:28.573Z,99946.66
2023-06-17T15:57:59.424Z,99950.97
2023-06-17T16:00:30.649Z,99954.88
2023-06-17T16:02:59.915Z,99960.91
2023-06-17T16:05:33.523Z,99953.19
2023-06-17T16:08:07.025Z,99960.84
2023-06-17T16:10:36.074Z,99959.31
2023-06-17T16:13:06.126Z,99958.16
2023-06-17T16:15:40.066Z,99960.59
2023-06-17T16:18:09.252Z,99960.78
2023-06-17T16:20:47.269Z,99945.00
2023-06-17T16:23:17.113Z,99954.63
2023-06-17T16:25:55.323Z,99949.59
2023-06-17T16:28:25.060Z,99952.66
2023-06-17T16:30:55.152Z,99944.97
2023-06-17T16:33:24.398Z,99951.38
2023-06-17T16:35:57.109Z,99954.00
2023-06-17T16:38:30.309Z,99953.69
2023-06-17T16:40:58.371Z,99950.41
2023-06-17T16:43:33.197Z,99949.50
2023-06-17T16:46:02.190Z,99950.16
2023-06-17T16:48:36.089Z,99955.38
2023-06-17T16:51:08.859Z,99952.41
2023-06-17T16:53:41.159Z,99942.19
2023-06-17T16:56:11.191Z,99945.47
2023-06-17T16:58:42.389Z,99953.66
2023-06-17T17:01:16.545Z,99953.53
2023-06-17T17:03:45.111Z,99953.06
2023-06-17T17:06:18.008Z,99956.25
2023-06-17T17:08:50.109Z,99928.41
2023-06-17T17:11:23.002Z,99950.84
2023-06-17T17:13:51.384Z,99954.56
2023-06-17T17:16:20.051Z,99967.41
2023-06-17T17:18:51.122Z,99962.88
2023-06-17T17:21:20.777Z,99968.03
2023-06-17T17:23:51.347Z,99961.97
2023-06-17T17:26:21.397Z,99960.25
2023-06-17T17:28:51.456Z,99964.59
2023-06-17T17:31:21.407Z,99965.00
2023-06-17T17:33:51.807Z,99970.91
2023-06-17T17:36:21.219Z,99972.09
2023-06-17T17:38:52.784Z,99966.84
2023-06-17T17:41:21.514Z,99969.91
2023-06-17T17:43:53.941Z,99969.88
2023-06-17T17:46:24.473Z,99981.00
2023-06-17T17:48:52.965Z,99983.97
2023-06-17T17:51:22.954Z,99986.56
2023-06-17T17:53:52.919Z,99985.47
2023-06-17T17:56:20.823Z,99982.78
2023-06-17T17:58:50.793Z,99982.00
2023-06-17T18:01:19.241Z,99965.00
2023-06-17T18:03:47.836Z,99978.38
2023-06-17T18:06:16.250Z,99979.63
2023-06-17T18:08:46.113Z,99982.56
2023-06-17T18:11:14.566Z,99981.31
2023-06-17T18:13:43.628Z,99980.13
2023-06-17T18:16:11.913Z,99986.53
2023-06-17T18:18:42.593Z,99990.00
2023-06-17T18:21:11.550Z,99983.50
2023-06-17T18:23:41.914Z,99987.00
2023-06-17T18:26:11.473Z,99985.88
2023-06-17T18:28:40.875Z,99986.59
2023-06-17T18:31:09.991Z,99982.41
2023-06-17T18:33:39.554Z,99982.34
2023-06-17T18:36:09.424Z,99981.38
2023-06-17T18:38:40.023Z,99983.16
2023-06-17T18:41:10.673Z,99979.22
2023-06-17T18:43:42.980Z,99980.03
2023-06-17T18:46:11.279Z,99977.19
2023-06-17T18:48:41.234Z,99982.22
2023-06-17T18:51:11.246Z,99986.22
2023-06-17T18:53:39.101Z,99987.69
2023-06-17T18:56:07.441Z,99975.91
2023-06-17T18:58:36.487Z,99988.78
2023-06-17T19:01:06.429Z,99987.19
2023-06-17T19:03:35.507Z,99988.69
2023-06-17T19:06:04.929Z,99988.72
2023-06-17T19:08:34.752Z,99994.91
2023-06-17T19:11:03.855Z,100005.38
2023-06-17T19:13:32.477Z,100011.59
2023-06-17T19:16:02.858Z,100004.06
2023-06-17T19:18:33.020Z,100009.09
2023-06-17T19:21:05.171Z,100015.41
2023-06-17T19:23:35.950Z,100008.00
2023-06-17T19:26:06.973Z,100016.47
2023-06-17T19:28:35.982Z,100016.22
2023-06-17T19:31:07.683Z,100013.53
2023-06-17T19:33:39.549Z,100026.69
2023-06-17T19:36:10.782Z,100023.91
2023-06-17T19:38:41.938Z,100024.31
2023-06-17T19:41:39.879Z,100027.09
2023-06-17T19:44:14.286Z,100031.19
2023-06-17T19:46:43.987Z,100010.31
2023-06-17T19:49:19.529Z,100032.28
2023-06-17T19:51:48.751Z,100034.44
2023-06-17T19:54:19.555Z,100032.53
2023-06-17T19:56:51.618Z,100040.00
2023-06-17T19:59:21.029Z,100042.34
2023-06-17T20:02:00.426Z,100042.88
2023-06-17T20:04:30.737Z,100041.94
2023-06-17T20:07:02.202Z,100039.78
2023-06-17T20:09:30.126Z,100045.19
2023-06-17T20:12:01.571Z,100040.78
2023-06-17T20:14:30.714Z,100044.16
2023-06-17T20:16:59.249Z,100040.97
2023-06-17T20:19:29.182Z,100040.78
2023-06-17T20:21:59.491Z,100046.03
2023-06-17T20:24:27.886Z,100063.34
2023-06-17T20:26:59.466Z,100056.22
2023-06-17T20:29:29.052Z,100042.34
2023-06-17T20:31:58.740Z,100052.75
2023-06-17T20:34:29.962Z,100045.44
2023-06-17T20:36:59.686Z,100046.41
2023-06-17T20:39:27.877Z,100051.75
2023-06-17T20:41:56.713Z,100053.41
2023-06-17T20:44:25.174Z,100059.13
2023-06-17T20:47:00.168Z,100061.16
2023-06-17T20:49:28.979Z,100052.72
2023-06-17T20:52:00.739Z,100059.38
2023-06-17T20:54:31.806Z,100053.53
2023-06-17T20:57:03.709Z,100049.03
2023-06-17T20:59:32.197Z,100028.56
2023-06-17T21:02:00.626Z,100054.09
2023-06-17T21:04:31.147Z,100055.16
2023-06-17T21:07:01.857Z,100044.97
2023-06-17T21:09:30.977Z,100026.41
2023-06-17T21:12:01.954Z,100052.88
2023-06-17T21:14:31.286Z,100045.59
2023-06-17T21:16:59.319Z,100044.91
2023-06-17T21:19:27.656Z,100046.56
2023-06-17T21:21:56.062Z,100050.22
2023-06-17T21:24:25.460Z,100045.09
2023-06-17T21:26:54.064Z,100061.44
2023-06-17T21:29:24.815Z,100057.09
2023-06-17T21:31:53.050Z,100053.22
2023-06-17T21:34:21.338Z,100056.53
2023-06-17T21:37:01.409Z,100065.72
2023-06-17T21:39:36.466Z,100066.66
2023-06-17T21:42:05.630Z,100064.53
2023-06-17T21:44:34.767Z,100075.84
2023-06-17T21:47:03.361Z,100067.72
2023-06-17T21:49:36.856Z,100066.44
2023-06-17T21:52:05.627Z,100061.78
2023-06-17T21:54:36.925Z,100062.59
2023-06-17T21:57:07.920Z,100059.69
2023-06-17T21:59:36.838Z,100057.56
2023-06-17T22:02:05.574Z,100062.97
2023-06-17T22:04:33.615Z,100059.06
2023-06-17T22:07:06.035Z,100060.16
2023-06-17T22:09:37.732Z,100053.34
2023-06-17T22:12:06.693Z,100060.88
2023-06-17T22:14:35.800Z,100066.44
2023-06-17T22:17:07.388Z,100059.25
2023-06-17T22:19:39.257Z,100068.66
2023-06-17T22:22:09.048Z,100062.53
2023-06-17T22:24:41.653Z,100066.72
2023-06-17T22:27:12.783Z,100065.00
2023-06-17T22:29:40.956Z,100057.63
2023-06-17T22:32:09.222Z,100076.91
2023-06-17T22:34:37.579Z,100064.78
2023-06-17T22:37:07.109Z,100070.31
2023-06-17T22:39:37.140Z,100076.25
2023-06-17T22:42:07.809Z,100070.81
2023-06-17T22:44:35.727Z,100072.69
2023-06-17T22:47:03.635Z,100065.16
2023-06-17T22:49:34.379Z,100071.75
2023-06-17T22:52:02.238Z,100068.00
2023-06-17T22:54:32.364Z,100072.38
2023-06-17T22:57:00.562Z,100065.53
2023-06-17T22:59:30.192Z,100062.22
2023-06-17T23:02:00.465Z,100053.84
2023-06-17T23:04:31.817Z,100075.00
2023-06-17T23:07:00.155Z,100073.97
2023-06-17T23:09:30.528Z,100078.91
2023-06-17T23:12:00.171Z,100073.19
2023-06-17T23:14:32.816Z,100074.53
2023-06-17T23:17:00.858Z,100069.03
2023-06-17T23:19:28.941Z,100070.19
2023-06-17T23:22:02.858Z,100068.25
2023-06-17T23:24:31.101Z,100069.94
2023-06-17T23:27:00.960Z,100065.00
2023-06-17T23:29:36.518Z,100071.03
2023-06-17T23:32:04.631Z,100063.66
2023-06-17T23:34:32.966Z,100065.84
2023-06-17T23:37:02.749Z,100072.16
2023-06-17T23:39:33.504Z,100072.97
2023-06-17T23:42:01.559Z,100066.13
2023-06-17T23:44:32.824Z,100074.94
2023-06-17T23:47:04.305Z,100068.09
2023-06-17T23:49:35.901Z,100065.34
2023-06-17T23:52:05.224Z,100071.66
2023-06-17T23:54:34.640Z,100079.34
2023-06-17T23:57:03.292Z,100086.75
2023-06-17T23:59:33.313Z,100081.00
